TimeCDT,TemperatureF,Dew PointF,Humidity,Sea Level PressureIn,VisibilityMPH,Wind Direction,Wind SpeedMPH,Gust SpeedMPH,PrecipitationIn,Events,Conditions,WindDirDegrees,DateUTC
12:56 AM,52.0,41.0,66,29.94,10.0,West,6.9,-,N/A,,Clear,260,2012-10-19 05:56:00
1:56 AM,53.1,39.0,59,29.93,10.0,Variable,6.9,-,N/A,,Clear,0,2012-10-19 06:56:00
2:56 AM,50.0,39.9,68,29.93,10.0,WSW,6.9,-,N/A,,Clear,240,2012-10-19 07:56:00
3:56 AM,50.0,39.9,68,29.91,10.0,WSW,9.2,-,N/A,,Clear,240,2012-10-19 08:56:00
4:56 AM,48.9,39.9,71,29.91,10.0,WSW,8.1,-,N/A,,Clear,240,2012-10-19 09:56:00
5:56 AM,48.0,39.9,74,29.92,10.0,West,6.9,-,N/A,,Clear,260,2012-10-19 10:56:00
6:56 AM,51.1,37.9,61,29.94,10.0,West,8.1,-,N/A,,Clear,270,2012-10-19 11:56:00
7:56 AM,50.0,39.9,68,29.94,10.0,West,8.1,-,N/A,,Clear,270,2012-10-19 12:56:00
8:56 AM,59.0,37.0,44,29.96,10.0,West,9.2,-,N/A,,Mostly Cloudy,280,2012-10-19 13:56:00
9:56 AM,64.0,35.1,34,29.96,8.0,WNW,13.8,-,N/A,,Scattered Clouds,300,2012-10-19 14:56:00
10:56 AM,68.0,34.0,28,29.96,8.0,WNW,15.0,-,N/A,,Scattered Clouds,300,2012-10-19 15:56:00
11:56 AM,72.0,33.1,24,29.95,10.0,WNW,12.7,-,N/A,,Partly Cloudy,300,2012-10-19 16:56:00
12:56 PM,73.0,32.0,22,29.94,10.0,WNW,16.1,24.2,N/A,,Clear,290,2012-10-19 17:56:00
1:56 PM,73.4,33.8,23,29.92,10.0,WNW,13.8,20.7,N/A,,Clear,300,2012-10-19 18:56:00
2:56 PM,73.9,33.1,22,29.90,10.0,West,15.0,23.0,N/A,,Clear,280,2012-10-19 19:56:00
3:56 PM,75.2,33.8,22,29.88,10.0,WNW,12.7,-,N/A,,Clear,290,2012-10-19 20:56:00
4:56 PM,75.0,32.0,21,29.88,10.0,West,15.0,-,N/A,,Clear,280,2012-10-19 21:56:00
5:56 PM,73.0,34.0,24,29.87,10.0,West,9.2,-,N/A,,Clear,280,2012-10-19 22:56:00
6:56 PM,61.0,44.1,54,29.88,10.0,WSW,4.6,-,N/A,,Clear,240,2012-10-19 23:56:00
7:56 PM,60.1,44.1,55,29.89,10.0,WSW,3.5,-,N/A,,Clear,240,2012-10-20 00:56:00
8:56 PM,55.4,44.6,67,29.90,10.0,WSW,3.5,-,N/A,,Clear,240,2012-10-20 01:56:00
9:56 PM,55.0,44.1,67,29.91,10.0,WSW,3.5,-,N/A,,Clear,240,2012-10-20 02:56:00
10:56 PM,54.0,44.1,69,29.92,10.0,Calm,Calm,-,N/A,,Clear,0,2012-10-20 03:56:00
11:56 PM,52.0,44.1,74,29.92,10.0,WSW,3.5,-,N/A,,Clear,250,2012-10-20 04:56:00